createdAt,value
2023-03-29T00:00:14.244Z,7.63
2023-03-29T00:02:43.477Z,4.67
2023-03-29T00:05:13.324Z,4.37
2023-03-29T00:07:41.823Z,7.03
2023-03-29T00:10:13.404Z,5.40
2023-03-29T00:12:42.668Z,11.50
2023-03-29T00:15:11.629Z,4.80
2023-03-29T00:17:40.048Z,6.37
2023-03-29T00:20:10.319Z,8.73
2023-03-29T00:22:39.844Z,6.17
2023-03-29T00:25:08.875Z,6.67
2023-03-29T00:27:39.117Z,6.10
2023-03-29T00:30:10.214Z,6.87
2023-03-29T00:32:38.722Z,7.90
2023-03-29T00:35:08.125Z,8.47
2023-03-29T00:37:36.528Z,7.20
2023-03-29T00:40:08.461Z,8.50
2023-03-29T00:42:38.596Z,5.17
2023-03-29T00:45:11.406Z,6.13
2023-03-29T00:47:42.710Z,5.57
2023-03-29T00:50:16.431Z,5.83
2023-03-29T00:52:48.689Z,8.17
2023-03-29T00:55:19.222Z,4.73
2023-03-29T00:57:53.674Z,6.33
2023-03-29T01:00:24.129Z,6.17
2023-03-29T01:02:55.961Z,9.00
2023-03-29T01:05:29.551Z,5.60
2023-03-29T01:08:01.265Z,6.07
2023-03-29T01:10:34.144Z,4.23
2023-03-29T01:13:09.476Z,6.37
2023-03-29T01:15:38.920Z,6.20
2023-03-29T01:18:07.425Z,6.30
2023-03-29T01:20:49.121Z,6.93
2023-03-29T01:23:37.978Z,5.00
2023-03-29T01:26:12.639Z,5.60
2023-03-29T01:28:46.853Z,6.60
2023-03-29T01:31:19.171Z,5.87
2023-03-29T01:33:52.261Z,6.23
2023-03-29T01:36:24.934Z,7.17
2023-03-29T01:38:57.138Z,4.67
2023-03-29T01:41:32.818Z,10.17
2023-03-29T01:44:05.913Z,8.27
2023-03-29T01:46:38.898Z,3.57
2023-03-29T01:49:12.335Z,5.73
2023-03-29T01:51:43.148Z,7.57
2023-03-29T01:54:15.855Z,8.37
2023-03-29T01:56:45.641Z,6.67
2023-03-29T01:59:17.715Z,6.23
2023-03-29T02:01:49.701Z,4.20
2023-03-29T02:04:20.029Z,6.00
2023-03-29T02:06:50.241Z,5.87
2023-03-29T02:09:18.910Z,7.17
2023-03-29T02:11:47.736Z,3.77
2023-03-29T02:14:17.536Z,9.43
2023-03-29T02:16:46.614Z,7.53
2023-03-29T02:19:15.356Z,4.70
2023-03-29T02:21:48.857Z,7.13
2023-03-29T02:24:20.087Z,9.07
2023-03-29T02:26:48.805Z,4.57
2023-03-29T02:29:18.610Z,10.83
2023-03-29T02:31:51.497Z,5.97
2023-03-29T02:34:23.473Z,6.90
2023-03-29T02:36:54.524Z,11.83
2023-03-29T02:39:25.452Z,8.77
2023-03-29T02:41:55.570Z,3.77
2023-03-29T02:44:28.481Z,6.97
2023-03-29T02:47:00.010Z,3.87
2023-03-29T02:49:28.632Z,4.37
2023-03-29T02:51:59.420Z,6.47
2023-03-29T02:54:30.013Z,5.70
2023-03-29T02:57:00.279Z,6.40
2023-03-29T02:59:30.965Z,7.23
2023-03-29T03:01:59.550Z,2.97
2023-03-29T03:04:29.672Z,5.67
2023-03-29T03:06:58.258Z,6.13
2023-03-29T03:09:27.446Z,6.83
2023-03-29T03:11:55.848Z,5.70
2023-03-29T03:14:28.217Z,6.93
2023-03-29T03:17:01.197Z,5.47
2023-03-29T03:19:31.675Z,6.00
2023-03-29T03:22:00.102Z,6.37
2023-03-29T03:24:29.057Z,5.37
2023-03-29T03:26:58.181Z,9.30
2023-03-29T03:29:28.390Z,3.77
2023-03-29T03:32:00.994Z,5.97
2023-03-29T03:34:56.042Z,4.90
2023-03-29T03:37:30.265Z,4.23
2023-03-29T03:39:58.863Z,5.93
2023-03-29T03:42:29.598Z,6.40
2023-03-29T03:44:58.928Z,7.17
2023-03-29T03:47:34.709Z,7.07
2023-03-29T03:50:18.467Z,5.03
2023-03-29T03:52:46.887Z,9.60
2023-03-29T03:55:16.463Z,6.47
2023-03-29T03:57:54.190Z,8.77
2023-03-29T04:00:23.561Z,10.40
2023-03-29T04:03:15.918Z,11.30
2023-03-29T04:05:45.893Z,6.60
2023-03-29T04:08:16.074Z,6.13
2023-03-29T04:11:03.433Z,6.37
2023-03-29T04:13:37.939Z,6.63
2023-03-29T04:16:27.541Z,7.73
2023-03-29T04:18:59.606Z,8.70
2023-03-29T04:21:28.190Z,8.77
2023-03-29T04:23:56.749Z,6.67
2023-03-29T04:26:25.906Z,7.63
2023-03-29T04:29:02.686Z,6.60
2023-03-29T04:31:43.266Z,7.90
2023-03-29T04:34:31.482Z,5.57
2023-03-29T04:37:00.030Z,5.53
2023-03-29T04:39:33.950Z,8.60
2023-03-29T04:42:05.925Z,2.50
2023-03-29T04:44:35.429Z,6.77
2023-03-29T04:47:07.399Z,7.67
2023-03-29T04:50:10.191Z,7.13
2023-03-29T04:52:45.524Z,6.73
2023-03-29T04:55:14.124Z,7.63
2023-03-29T04:57:47.856Z,6.73
2023-03-29T05:00:31.948Z,5.60
2023-03-29T05:03:04.478Z,4.60
2023-03-29T05:05:37.269Z,6.43
2023-03-29T05:08:06.308Z,6.03
2023-03-29T05:11:00.584Z,7.77
2023-03-29T05:13:30.416Z,6.17
2023-03-29T05:16:00.777Z,10.13
2023-03-29T05:18:31.087Z,10.30
2023-03-29T05:21:01.383Z,4.23
2023-03-29T05:23:30.608Z,5.73
2023-03-29T05:26:22.527Z,8.83
2023-03-29T05:28:54.193Z,5.00
2023-03-29T05:31:23.761Z,6.80
2023-03-29T05:33:55.902Z,6.27
2023-03-29T05:36:29.133Z,6.27
2023-03-29T05:38:57.641Z,8.63
2023-03-29T05:41:26.594Z,9.03
2023-03-29T05:44:21.256Z,6.73
2023-03-29T05:46:55.913Z,7.97
2023-03-29T05:49:24.603Z,5.80
2023-03-29T05:52:14.525Z,6.30
2023-03-29T05:54:43.388Z,6.70
2023-03-29T05:57:13.580Z,8.03
2023-03-29T05:59:42.681Z,12.00
2023-03-29T06:02:12.685Z,7.97
2023-03-29T06:04:46.785Z,11.30
2023-03-29T06:07:19.367Z,8.30
2023-03-29T06:10:09.640Z,5.37
2023-03-29T06:12:39.965Z,5.57
2023-03-29T06:15:10.240Z,13.03
2023-03-29T06:17:51.006Z,6.90
2023-03-29T06:20:19.817Z,5.77
2023-03-29T06:22:55.006Z,5.27
2023-03-29T06:25:25.066Z,6.13
2023-03-29T06:27:54.303Z,8.30
2023-03-29T06:30:22.864Z,7.53
2023-03-29T06:32:57.887Z,8.70
2023-03-29T06:35:48.318Z,6.20
2023-03-29T06:38:22.721Z,9.70
2023-03-29T06:41:07.004Z,6.70
2023-03-29T06:43:57.867Z,6.37
2023-03-29T06:46:34.207Z,14.83
2023-03-29T06:49:07.461Z,5.20
2023-03-29T06:51:45.163Z,5.00
2023-03-29T06:54:15.017Z,8.17
2023-03-29T06:56:52.652Z,5.53
2023-03-29T06:59:23.388Z,8.77
2023-03-29T07:02:12.537Z,9.80
2023-03-29T07:04:52.096Z,6.27
2023-03-29T07:07:33.184Z,7.27
2023-03-29T07:10:23.029Z,6.90
2023-03-29T07:13:12.303Z,6.10
2023-03-29T07:15:42.048Z,10.93
2023-03-29T07:18:21.553Z,7.13
2023-03-29T07:20:50.135Z,6.07
2023-03-29T07:23:19.378Z,5.97
2023-03-29T07:25:50.570Z,5.00
2023-03-29T07:28:20.118Z,5.57
2023-03-29T07:30:49.713Z,8.47
2023-03-29T07:33:21.882Z,11.67
2023-03-29T07:35:53.349Z,6.07
2023-03-29T07:38:22.100Z,7.10
2023-03-29T07:40:59.136Z,11.73
2023-03-29T07:43:37.001Z,10.67
2023-03-29T07:46:06.521Z,10.53
2023-03-29T07:48:37.418Z,8.47
2023-03-29T07:51:15.240Z,9.00
2023-03-29T07:53:46.492Z,10.00
2023-03-29T07:56:49.642Z,10.80
2023-03-29T07:59:38.807Z,7.67
2023-03-29T08:02:12.480Z,10.70
2023-03-29T08:04:45.328Z,9.40
2023-03-29T08:07:21.251Z,9.43
2023-03-29T08:10:10.189Z,5.93
2023-03-29T08:13:09.193Z,7.07
2023-03-29T08:15:57.032Z,9.07
2023-03-29T08:18:35.073Z,18.07
2023-03-29T08:21:04.579Z,11.47
2023-03-29T08:23:33.512Z,22.10
2023-03-29T08:26:18.342Z,30.33
2023-03-29T08:28:49.376Z,15.43
2023-03-29T08:31:21.095Z,9.63
2023-03-29T08:33:50.030Z,10.13
2023-03-29T08:36:38.681Z,8.57
2023-03-29T08:39:14.330Z,13.07
2023-03-29T08:41:55.045Z,6.20
2023-03-29T08:44:41.737Z,8.93
2023-03-29T08:47:21.108Z,7.73
2023-03-29T08:49:53.219Z,13.63
2023-03-29T08:52:33.829Z,9.13
2023-03-29T08:55:16.702Z,10.57
2023-03-29T08:58:08.676Z,8.60
2023-03-29T09:00:41.216Z,7.57
2023-03-29T09:03:18.093Z,8.33
2023-03-29T09:05:49.120Z,10.17
2023-03-29T09:08:23.263Z,16.33
2023-03-29T09:11:18.587Z,9.40
2023-03-29T09:13:52.989Z,9.67
2023-03-29T09:16:26.697Z,8.73
2023-03-29T09:19:06.344Z,10.07
2023-03-29T09:21:39.080Z,7.30
2023-03-29T09:24:39.617Z,9.40
2023-03-29T09:27:18.483Z,7.30
2023-03-29T09:29:57.793Z,8.57
2023-03-29T09:32:45.889Z,9.93
2023-03-29T09:35:18.653Z,7.33
2023-03-29T09:37:50.003Z,7.13
2023-03-29T09:40:21.512Z,13.60
2023-03-29T09:43:04.158Z,8.30
2023-03-29T09:45:33.497Z,12.57
2023-03-29T09:48:10.454Z,7.47
2023-03-29T09:50:46.061Z,9.10
2023-03-29T09:53:15.889Z,9.30
2023-03-29T09:55:52.028Z,8.23
2023-03-29T09:58:31.666Z,7.33
2023-03-29T10:01:02.253Z,7.73
2023-03-29T10:03:34.965Z,7.40
2023-03-29T10:06:12.708Z,8.90
2023-03-29T10:08:48.023Z,9.47
2023-03-29T10:11:23.358Z,6.73
2023-03-29T10:13:55.067Z,8.23
2023-03-29T10:16:25.922Z,9.57
2023-03-29T10:18:55.799Z,8.60
2023-03-29T10:21:24.479Z,8.27
2023-03-29T10:23:59.600Z,11.57
2023-03-29T10:26:30.973Z,13.20
2023-03-29T10:29:01.838Z,9.43
2023-03-29T10:31:34.067Z,9.30
2023-03-29T10:34:06.351Z,8.13
2023-03-29T10:36:34.911Z,7.87
2023-03-29T10:39:06.352Z,9.50
2023-03-29T10:41:35.451Z,7.90
2023-03-29T10:44:05.151Z,7.63
2023-03-29T10:46:36.243Z,8.70
2023-03-29T10:49:15.801Z,6.37
2023-03-29T10:51:46.259Z,7.77
2023-03-29T10:54:16.314Z,8.70
2023-03-29T10:56:51.361Z,6.80
2023-03-29T10:59:30.318Z,8.27
2023-03-29T11:02:27.929Z,8.67
2023-03-29T11:05:05.984Z,7.50
2023-03-29T11:07:36.010Z,7.30
2023-03-29T11:10:15.798Z,6.20
2023-03-29T11:12:49.354Z,6.73
2023-03-29T11:15:35.242Z,5.90
2023-03-29T11:18:16.136Z,5.33
2023-03-29T11:20:49.900Z,4.43
2023-03-29T11:23:27.499Z,6.47
2023-03-29T11:26:05.467Z,5.53
2023-03-29T11:28:37.889Z,4.57
2023-03-29T11:31:10.989Z,5.80
2023-03-29T11:33:51.067Z,4.57
2023-03-29T11:36:25.699Z,7.40
2023-03-29T11:39:01.338Z,6.30
2023-03-29T11:41:31.983Z,6.10
2023-03-29T11:44:02.523Z,6.90
2023-03-29T11:46:34.050Z,5.17
2023-03-29T11:49:05.587Z,6.27
2023-03-29T11:51:39.462Z,4.63
2023-03-29T11:54:12.934Z,6.27
2023-03-29T11:56:43.690Z,3.70
2023-03-29T11:59:16.013Z,5.27
2023-03-29T12:01:48.166Z,4.40
2023-03-29T12:04:23.018Z,11.77
2023-03-29T12:06:59.343Z,3.33
2023-03-29T12:09:33.497Z,6.10
2023-03-29T12:12:07.741Z,5.37
2023-03-29T12:14:48.705Z,3.80
2023-03-29T12:17:20.596Z,4.27
2023-03-29T12:19:54.465Z,4.67
2023-03-29T12:22:25.518Z,4.87
2023-03-29T12:24:55.419Z,5.23
2023-03-29T12:27:27.166Z,5.87
2023-03-29T12:30:25.252Z,4.63
2023-03-29T12:33:16.104Z,4.10
2023-03-29T12:36:33.720Z,5.53
2023-03-29T12:39:39.473Z,3.73
2023-03-29T12:42:48.031Z,4.27
2023-03-29T12:45:41.543Z,3.13
2023-03-29T12:48:17.471Z,4.37
2023-03-29T12:50:49.506Z,5.70
2023-03-29T12:53:22.560Z,6.57
2023-03-29T12:55:57.770Z,4.47
2023-03-29T12:58:29.536Z,7.73
2023-03-29T13:01:06.349Z,3.90
2023-03-29T13:03:47.621Z,4.23
2023-03-29T13:06:28.910Z,4.53
2023-03-29T13:09:02.292Z,3.90
2023-03-29T13:11:36.211Z,4.00
2023-03-29T13:14:15.656Z,6.43
2023-03-29T13:16:44.923Z,4.80
2023-03-29T13:19:25.292Z,4.60
2023-03-29T13:22:01.443Z,6.00
2023-03-29T13:24:46.441Z,3.87
2023-03-29T13:27:26.325Z,3.83
2023-03-29T13:30:13.557Z,6.63
2023-03-29T13:32:50.686Z,7.63
2023-03-29T13:35:28.604Z,4.47
2023-03-29T13:38:07.496Z,4.10
2023-03-29T13:40:46.608Z,4.03
2023-03-29T13:43:24.722Z,5.10
2023-03-29T13:46:17.725Z,5.37
2023-03-29T13:49:14.405Z,3.80
2023-03-29T13:51:45.000Z,4.67
2023-03-29T13:54:28.087Z,7.60
2023-03-29T13:57:11.588Z,9.60
2023-03-29T13:59:47.609Z,4.27
2023-03-29T14:02:22.913Z,7.57
2023-03-29T14:04:52.560Z,5.67
2023-03-29T14:07:26.215Z,5.87
2023-03-29T14:09:56.447Z,7.20
2023-03-29T14:12:25.240Z,6.73
2023-03-29T14:15:01.432Z,5.47
2023-03-29T14:17:30.343Z,6.43
2023-03-29T14:20:00.062Z,5.27
2023-03-29T14:22:32.737Z,6.13
2023-03-29T14:25:06.620Z,4.17
2023-03-29T14:27:37.415Z,6.13
2023-03-29T14:30:21.962Z,5.70
2023-03-29T14:32:52.693Z,6.17
2023-03-29T14:35:21.606Z,5.43
2023-03-29T14:37:50.345Z,8.03
2023-03-29T14:40:21.161Z,7.03
2023-03-29T14:42:51.201Z,6.43
2023-03-29T14:45:24.543Z,6.93
2023-03-29T14:47:53.989Z,8.47
2023-03-29T14:50:26.276Z,4.67
2023-03-29T14:52:55.540Z,5.63
2023-03-29T14:55:25.014Z,6.10
2023-03-29T14:57:56.272Z,6.07
2023-03-29T15:00:30.226Z,7.23
2023-03-29T15:03:01.266Z,5.00
2023-03-29T15:05:37.840Z,5.80
2023-03-29T15:08:08.879Z,7.03
2023-03-29T15:10:38.818Z,6.10
2023-03-29T15:13:08.779Z,6.13
2023-03-29T15:15:39.660Z,9.07
2023-03-29T15:18:09.139Z,6.50
2023-03-29T15:20:39.584Z,7.23
2023-03-29T15:23:20.597Z,7.63
2023-03-29T15:25:52.375Z,7.77
2023-03-29T15:28:30.940Z,7.40
2023-03-29T15:31:08.295Z,5.60
2023-03-29T15:33:39.020Z,7.57
2023-03-29T15:36:09.274Z,5.47
2023-03-29T15:38:43.809Z,7.27
2023-03-29T15:41:13.653Z,7.43
2023-03-29T15:43:42.394Z,9.00
2023-03-29T15:46:14.683Z,7.47
2023-03-29T15:48:43.653Z,9.50
2023-03-29T15:51:12.839Z,7.50
2023-03-29T15:53:41.735Z,9.27
2023-03-29T15:56:11.429Z,9.50
2023-03-29T15:58:40.052Z,6.60
2023-03-29T16:01:16.052Z,7.30
2023-03-29T16:03:47.804Z,9.13
2023-03-29T16:06:17.662Z,9.40
2023-03-29T16:08:46.232Z,7.70
2023-03-29T16:11:14.700Z,6.50
2023-03-29T16:13:43.255Z,10.20
2023-03-29T16:16:13.953Z,6.83
2023-03-29T16:18:42.404Z,7.70
2023-03-29T16:21:13.231Z,7.57
2023-03-29T16:23:44.273Z,8.43
2023-03-29T16:26:13.651Z,7.73
2023-03-29T16:28:42.596Z,7.00
2023-03-29T16:31:13.561Z,10.23
2023-03-29T16:33:42.237Z,12.27
2023-03-29T16:36:11.685Z,8.23
2023-03-29T16:38:40.684Z,7.47
2023-03-29T16:41:09.046Z,7.33
2023-03-29T16:43:38.706Z,9.37
2023-03-29T16:46:08.892Z,7.50
2023-03-29T16:48:39.149Z,10.20
2023-03-29T16:51:08.415Z,8.20
2023-03-29T16:53:36.958Z,11.27
2023-03-29T16:56:06.184Z,10.57
2023-03-29T16:58:35.718Z,8.53
2023-03-29T17:01:14.914Z,9.27
2023-03-29T17:03:45.003Z,9.93
2023-03-29T17:06:13.985Z,11.73
2023-03-29T17:08:42.546Z,10.90
2023-03-29T17:11:11.837Z,12.97
2023-03-29T17:13:40.377Z,7.83
2023-03-29T17:16:09.544Z,9.13
2023-03-29T17:18:38.109Z,8.10
2023-03-29T17:21:08.936Z,8.63
2023-03-29T17:23:37.430Z,15.07
2023-03-29T17:26:07.029Z,14.43
2023-03-29T17:28:36.330Z,12.03
2023-03-29T17:31:07.101Z,15.73
2023-03-29T17:33:38.987Z,14.33
2023-03-29T17:36:10.653Z,10.50
2023-03-29T17:38:39.353Z,13.30
2023-03-29T17:41:08.302Z,8.50
2023-03-29T17:43:36.869Z,14.73
2023-03-29T17:46:05.961Z,10.90
2023-03-29T17:48:34.658Z,15.17
2023-03-29T17:51:03.221Z,10.43
2023-03-29T17:53:32.982Z,10.83
2023-03-29T17:56:01.776Z,10.03
2023-03-29T17:58:30.795Z,8.03
2023-03-29T18:00:59.174Z,9.73
2023-03-29T18:03:27.785Z,8.70
2023-03-29T18:05:56.626Z,10.00
2023-03-29T18:08:25.062Z,9.47
2023-03-29T18:10:54.841Z,9.93
2023-03-29T18:13:25.525Z,10.10
2023-03-29T18:15:56.685Z,8.77
2023-03-29T18:18:25.226Z,8.63
2023-03-29T18:20:53.619Z,10.33
2023-03-29T18:23:22.057Z,9.20
2023-03-29T18:25:50.630Z,21.80
2023-03-29T18:28:20.355Z,11.17
2023-03-29T18:30:51.957Z,14.17
2023-03-29T18:33:20.376Z,10.97
2023-03-29T18:35:50.600Z,9.80
2023-03-29T18:38:20.114Z,9.77
2023-03-29T18:40:49.032Z,9.33
2023-03-29T18:43:17.509Z,8.47
2023-03-29T18:45:47.600Z,9.63
2023-03-29T18:48:16.080Z,9.33
2023-03-29T18:50:46.521Z,8.47
2023-03-29T18:53:15.113Z,10.20
2023-03-29T18:55:43.900Z,9.57
2023-03-29T18:58:13.327Z,10.50
2023-03-29T19:00:42.368Z,8.63
2023-03-29T19:03:12.354Z,10.33
2023-03-29T19:05:41.404Z,10.40
2023-03-29T19:08:10.097Z,11.07
2023-03-29T19:10:40.551Z,12.77
2023-03-29T19:13:09.215Z,10.77
2023-03-29T19:15:39.964Z,12.77
2023-03-29T19:18:08.794Z,11.47
2023-03-29T19:20:38.738Z,11.67
2023-03-29T19:23:07.218Z,9.50
2023-03-29T19:25:35.617Z,11.03
2023-03-29T19:28:04.935Z,12.03
2023-03-29T19:30:33.382Z,9.00
2023-03-29T19:33:02.136Z,9.03
2023-03-29T19:35:30.722Z,13.83
2023-03-29T19:38:01.026Z,12.20
2023-03-29T19:40:29.479Z,12.37
2023-03-29T19:42:57.915Z,14.43
2023-03-29T19:45:27.901Z,11.13
2023-03-29T19:47:56.765Z,9.47
2023-03-29T19:50:26.276Z,11.90
2023-03-29T19:52:57.089Z,11.00
2023-03-29T19:55:27.296Z,10.97
2023-03-29T19:57:55.791Z,10.97
2023-03-29T20:00:25.146Z,12.33
2023-03-29T20:02:55.626Z,10.27
2023-03-29T20:05:24.177Z,10.13
2023-03-29T20:07:52.782Z,9.67
2023-03-29T20:10:21.350Z,10.60
2023-03-29T20:12:51.219Z,10.57
2023-03-29T20:15:20.112Z,11.23
2023-03-29T20:17:48.613Z,9.43
2023-03-29T20:20:17.258Z,10.13
2023-03-29T20:22:46.213Z,10.37
2023-03-29T20:25:14.865Z,10.77
2023-03-29T20:27:43.648Z,11.73
2023-03-29T20:30:14.395Z,11.03
2023-03-29T20:32:43.033Z,9.47
2023-03-29T20:35:12.128Z,12.83
2023-03-29T20:37:40.724Z,12.60
2023-03-29T20:40:13.452Z,11.90
2023-03-29T20:42:41.776Z,12.80
2023-03-29T20:45:18.384Z,10.37
2023-03-29T20:48:00.343Z,10.30
2023-03-29T20:50:28.977Z,13.20
2023-03-29T20:53:03.728Z,10.83
2023-03-29T20:55:33.384Z,10.47
2023-03-29T20:58:02.460Z,11.57
2023-03-29T21:00:33.517Z,11.23
2023-03-29T21:03:04.582Z,10.60
2023-03-29T21:05:34.076Z,10.87
2023-03-29T21:08:03.711Z,10.90
2023-03-29T21:10:32.162Z,10.80
2023-03-29T21:13:02.620Z,10.13
2023-03-29T21:15:31.972Z,11.10
2023-03-29T21:18:01.986Z,9.87
2023-03-29T21:20:30.568Z,10.93
2023-03-29T21:22:59.041Z,9.30
2023-03-29T21:25:27.483Z,9.13
2023-03-29T21:27:55.897Z,9.50
2023-03-29T21:30:24.380Z,12.47
2023-03-29T21:32:52.883Z,11.17
2023-03-29T21:35:22.818Z,8.53
2023-03-29T21:37:51.263Z,9.13
2023-03-29T21:40:19.852Z,10.70
2023-03-29T21:42:48.228Z,10.13
2023-03-29T21:45:16.766Z,9.67
2023-03-29T21:47:45.270Z,10.47
2023-03-29T21:50:13.802Z,10.47
2023-03-29T21:52:43.484Z,10.33
2023-03-29T21:55:12.311Z,9.97
2023-03-29T21:57:40.786Z,10.80
2023-03-29T22:00:13.300Z,10.43
2023-03-29T22:02:43.379Z,10.90
2023-03-29T22:05:11.898Z,10.87
2023-03-29T22:07:40.319Z,9.47
2023-03-29T22:10:12.385Z,8.80
2023-03-29T22:12:41.356Z,9.20
2023-03-29T22:15:12.491Z,12.57
2023-03-29T22:17:41.391Z,10.10
2023-03-29T22:20:12.969Z,10.07
2023-03-29T22:22:41.782Z,11.00
2023-03-29T22:25:12.175Z,10.63
2023-03-29T22:27:40.747Z,9.93
2023-03-29T22:30:10.235Z,9.60
2023-03-29T22:32:38.887Z,9.50
2023-03-29T22:35:08.467Z,9.60
2023-03-29T22:37:41.950Z,10.00
2023-03-29T22:40:13.692Z,9.80
2023-03-29T22:42:42.160Z,10.77
2023-03-29T22:45:11.888Z,11.30
2023-03-29T22:47:40.326Z,9.40
2023-03-29T22:50:09.795Z,10.20
2023-03-29T22:52:38.187Z,13.77
2023-03-29T22:55:07.560Z,11.37
2023-03-29T22:57:37.388Z,10.30
2023-03-29T23:00:09.496Z,10.77
2023-03-29T23:02:39.313Z,11.07
2023-03-29T23:05:09.283Z,12.07
2023-03-29T23:07:37.706Z,11.47
2023-03-29T23:10:07.589Z,12.60
2023-03-29T23:12:37.287Z,11.70
2023-03-29T23:15:08.144Z,15.77
2023-03-29T23:17:37.219Z,11.40
2023-03-29T23:20:07.133Z,13.23
2023-03-29T23:22:36.394Z,12.70
2023-03-29T23:25:04.980Z,11.43
2023-03-29T23:27:34.646Z,10.17
2023-03-29T23:30:07.545Z,10.80
2023-03-29T23:32:36.045Z,10.03
2023-03-29T23:35:05.179Z,11.50
2023-03-29T23:37:33.586Z,11.50
2023-03-29T23:40:02.008Z,11.00
2023-03-29T23:42:31.317Z,13.13
2023-03-29T23:45:00.201Z,11.63
2023-03-29T23:47:29.953Z,10.83
2023-03-29T23:49:58.428Z,12.67
2023-03-29T23:52:27.306Z,11.50
2023-03-29T23:54:55.727Z,12.63
2023-03-29T23:57:34.563Z,12.20
